Time;durP1;ratioP1;P1;durP2;ratioP2;P2;SDS_P1;SDS_P2;PMS_P1;PMS_P2;Temp;Humidity;BMP_temperature;BMP_pressure;BME280_temperature;BME280_humidity;BME280_pressure;Samples;Min_cycle;Max_cycle;Signal;HPM_P1;HPM_P2
2023/05/28 00:01:37;;;;;;;20.53;15.20;;;;;;;39.73;35.86;101030.50;5118213;27;20529;-83
2023/05/28 00:04:03;;;;;;;21.13;15.30;;;;;;;39.75;35.86;101027.47;5117849;27;20507;-85
2023/05/28 00:06:29;;;;;;;29.30;18.37;;;;;;;39.72;35.85;101023.47;5117461;27;20424;-85
2023/05/28 00:08:55;;;;;;;24.90;16.17;;;;;;;39.73;36.59;101010.69;5117698;27;20513;-85
2023/05/28 00:11:21;;;;;;;26.53;19.80;;;;;;;39.74;36.12;101009.56;5117418;27;20507;-82
2023/05/28 00:13:47;;;;;;;25.33;19.37;;;;;;;39.77;35.93;101019.78;5117425;27;20521;-83
2023/05/28 00:16:14;;;;;;;30.23;22.50;;;;;;;39.77;36.10;101011.63;5117139;27;20454;-84
2023/05/28 00:18:40;;;;;;;28.20;20.20;;;;;;;39.76;35.97;101016.28;5102530;28;20468;-83
2023/05/28 00:21:06;;;;;;;32.23;23.60;;;;;;;39.74;36.08;101007.66;5097458;28;20426;-83
2023/05/28 00:23:31;;;;;;;30.13;23.50;;;;;;;39.71;35.86;101005.56;5096683;28;20416;-82
2023/05/28 00:25:57;;;;;;;28.53;23.23;;;;;;;39.75;36.07;101003.81;5096861;28;20788;-83
2023/05/28 00:28:23;;;;;;;32.20;27.00;;;;;;;39.75;36.12;100992.94;5115402;28;20818;-83
2023/05/28 00:30:49;;;;;;;34.43;27.80;;;;;;;39.72;36.32;100990.88;5096910;28;20230;-83
2023/05/28 00:33:15;;;;;;;31.07;26.10;;;;;;;39.69;36.33;100990.69;5096515;28;20188;-83
2023/05/28 00:35:41;;;;;;;32.70;25.67;;;;;;;39.66;36.29;100980.47;5096837;28;20487;-83
2023/05/28 00:38:07;;;;;;;28.67;24.00;;;;;;;39.69;36.83;100988.00;5096694;28;20416;-83
2023/05/28 00:40:33;;;;;;;27.17;19.00;;;;;;;39.64;36.30;100979.97;5096460;28;20403;-83
2023/05/28 00:43:00;;;;;;;24.43;21.03;;;;;;;39.62;36.76;100976.78;5096446;28;20427;-83
2023/05/28 00:45:26;;;;;;;32.77;21.90;;;;;;;39.63;36.55;100973.75;5096396;28;20451;-83
2023/05/28 00:47:52;;;;;;;28.83;21.70;;;;;;;39.64;36.10;100978.06;5098057;27;20431;-83
2023/05/28 00:50:20;;;;;;;36.23;24.00;;;;;;;39.64;36.57;100971.84;5099770;27;20506;-85
2023/05/28 00:52:49;;;;;;;24.37;17.13;;;;;;;39.65;36.51;100965.28;5116773;27;20917;-85
2023/05/28 00:55:15;;;;;;;24.23;19.70;;;;;;;39.63;36.46;100965.59;5116501;27;20931;-85
2023/05/28 00:57:43;;;;;;;31.20;21.10;;;;;;;39.66;36.63;100961.47;5116581;27;20422;-83
2023/05/28 01:00:10;;;;;;;28.23;21.73;;;;;;;39.66;36.39;100958.75;5135262;27;20484;-83
2023/05/28 01:02:37;;;;;;;35.63;24.20;;;;;;;39.65;36.33;100946.28;5116710;27;20527;-83
2023/05/28 01:05:03;;;;;;;28.37;23.07;;;;;;;39.62;36.76;100946.94;5135176;27;20395;-83
2023/05/28 01:07:30;;;;;;;31.20;23.77;;;;;;;39.64;36.40;100941.97;5116368;27;20418;-83
2023/05/28 01:09:56;;;;;;;31.03;23.23;;;;;;;39.63;36.63;100943.88;5108206;28;20408;-85
2023/05/28 01:12:24;;;;;;;28.30;18.70;;;;;;;39.58;36.50;100941.28;5095869;28;20435;-84
2023/05/28 01:14:50;;;;;;;27.50;18.60;;;;;;;39.60;36.31;100944.53;5079013;28;20801;-84
2023/05/28 01:17:16;;;;;;;26.77;16.77;;;;;;;39.57;36.63;100939.69;5081466;27;20543;-83
2023/05/28 01:19:47;;;;;;;30.23;19.37;;;;;;;39.56;36.76;100935.38;5116029;27;21071;-84
2023/05/28 01:22:17;;;;;;;23.73;17.43;;;;;;;39.60;36.41;100939.09;5128838;27;20408;-83
2023/05/28 01:24:46;;;;;;;20.03;15.87;;;;;;;39.61;36.89;100937.19;5095598;28;20452;-82
2023/05/28 01:27:13;;;;;;;21.90;16.10;;;;;;;39.62;36.41;100927.91;5095581;28;20440;-83
2023/05/28 01:29:39;;;;;;;26.63;18.20;;;;;;;39.65;36.54;100935.41;5095300;28;20933;-83
2023/05/28 01:32:05;;;;;;;26.07;17.20;;;;;;;39.62;36.73;100928.72;5095705;28;20511;-83
2023/05/28 01:34:31;;;;;;;25.40;19.27;;;;;;;39.63;36.50;100933.03;5095362;28;20407;-83
2023/05/28 01:37:03;;;;;;;21.73;16.30;;;;;;;39.63;36.74;100932.22;5095308;28;20475;-83
2023/05/28 01:39:38;;;;;;;20.53;15.73;;;;;;;39.62;36.85;100920.56;5095339;28;20451;-83
2023/05/28 01:42:05;;;;;;;24.67;15.73;;;;;;;39.62;36.31;100930.63;5095035;28;21000;-84
2023/05/28 01:44:31;;;;;;;28.20;15.70;;;;;;;39.58;36.91;100930.44;5098473;27;20486;-85
2023/05/28 01:46:57;;;;;;;26.03;17.60;;;;;;;39.56;36.82;100929.94;5115592;27;20411;-85
2023/05/28 01:49:23;;;;;;;33.30;16.77;;;;;;;39.59;36.24;100931.22;5116251;27;20454;-85
2023/05/28 01:51:52;;;;;;;25.87;16.27;;;;;;;39.54;36.74;100931.41;5115665;27;20423;-85
2023/05/28 01:54:20;;;;;;;21.87;16.77;;;;;;;39.53;36.39;100919.72;5115438;27;20454;-85
2023/05/28 01:56:46;;;;;;;30.23;17.90;;;;;;;39.55;36.38;100924.84;5115615;27;20493;-85
2023/05/28 01:59:12;;;;;;;25.83;18.03;;;;;;;39.53;36.40;100927.06;5115334;27;20458;-86
2023/05/28 02:01:38;;;;;;;29.40;18.30;;;;;;;39.45;36.86;100921.28;5115350;27;20466;-85
2023/05/28 02:04:04;;;;;;;28.70;17.10;;;;;;;39.42;36.67;100924.66;5115458;27;20419;-85
2023/05/28 02:06:33;;;;;;;26.43;17.87;;;;;;;39.43;36.58;100934.38;5115255;27;20948;-85
2023/05/28 02:09:00;;;;;;;24.50;17.07;;;;;;;39.47;36.75;100923.69;5115375;27;20545;-85
2023/05/28 02:11:26;;;;;;;37.07;16.00;;;;;;;39.48;36.93;100920.69;5115027;27;20412;-86
2023/05/28 02:13:52;;;;;;;26.17;17.93;;;;;;;39.47;36.68;100931.81;5094905;28;20431;-85
2023/05/28 02:16:19;;;;;;;23.27;16.50;;;;;;;39.46;36.76;100928.31;5094561;28;20491;-85
2023/05/28 02:18:45;;;;;;;24.40;17.27;;;;;;;39.47;36.36;100923.69;5109467;28;20474;-85
2023/05/28 02:21:12;;;;;;;30.13;16.30;;;;;;;39.48;36.40;100920.69;5115061;28;20422;-85
2023/05/28 02:23:43;;;;;;;26.53;16.70;;;;;;;39.48;36.71;100920.69;5115167;28;20411;-87
2023/05/28 02:26:09;;;;;;;24.73;14.90;;;;;;;39.50;36.46;100917.63;5115094;28;20468;-85
2023/05/28 02:28:35;;;;;;;26.67;17.00;;;;;;;39.50;36.47;100915.72;5115183;28;20445;-85
2023/05/28 02:31:01;;;;;;;22.63;15.80;;;;;;;39.53;36.32;100921.63;5107567;28;20970;-85
2023/05/28 02:33:27;;;;;;;23.33;16.90;;;;;;;39.52;36.32;100907.25;5094713;28;20435;-85
2023/05/28 02:35:54;;;;;;;29.00;15.40;;;;;;;39.56;36.21;100910.16;5094307;28;20463;-85
2023/05/28 02:38:20;;;;;;;33.57;19.47;;;;;;;39.56;36.38;100910.94;5094847;28;20454;-85
2023/05/28 02:40:46;;;;;;;71.70;45.20;;;;;;;39.53;36.36;100914.28;5094655;28;20533;-85
2023/05/28 02:43:12;;;;;;;74.73;50.83;;;;;;;39.55;36.73;100919.41;5097765;28;20826;-85
2023/05/28 02:45:38;;;;;;;48.13;34.60;;;;;;;39.50;36.70;100923.06;5115175;28;20986;-86
2023/05/28 02:48:04;;;;;;;40.60;29.60;;;;;;;39.52;36.57;100923.53;5114793;28;20442;-85
2023/05/28 02:50:30;;;;;;;48.07;33.57;;;;;;;39.52;36.65;100915.41;5114921;28;20411;-85
2023/05/28 02:52:56;;;;;;;56.93;42.00;;;;;;;39.51;37.03;100921.94;5116384;27;20415;-85
2023/05/28 02:55:22;;;;;;;48.73;39.67;;;;;;;39.52;36.77;100931.69;5118827;27;20447;-85
2023/05/28 02:57:48;;;;;;;59.67;49.73;;;;;;;39.49;36.68;100926.91;5119181;27;20662;-85
2023/05/28 03:00:14;;;;;;;82.17;69.00;;;;;;;39.49;37.08;100932.34;5118926;27;20423;-85
2023/05/28 03:02:40;;;;;;;87.37;77.27;;;;;;;39.47;36.93;100939.97;5101339;28;20467;-85
2023/05/28 03:05:07;;;;;;;89.33;77.20;;;;;;;39.50;37.17;100942.06;5098411;28;20451;-85
2023/05/28 03:07:33;;;;;;;89.03;74.13;;;;;;;39.46;36.86;100950.03;5116822;28;20400;-87
2023/05/28 03:09:59;;;;;;;77.80;73.70;;;;;;;39.46;37.19;100950.03;5100444;28;20426;-85
2023/05/28 03:12:25;;;;;;;77.77;71.70;;;;;;;39.45;36.99;100959.28;5107399;27;20705;-86
2023/05/28 03:14:51;;;;;;;91.43;68.57;;;;;;;39.46;37.45;100957.38;5118621;27;20415;-86
2023/05/28 03:17:17;;;;;;;94.67;83.57;;;;;;;39.45;37.23;100969.34;5118569;27;20999;-86
2023/05/28 03:19:43;;;;;;;87.30;83.10;;;;;;;39.46;37.20;100974.47;5109030;27;20884;-85
2023/05/28 03:22:09;;;;;;;80.10;72.43;;;;;;;39.48;37.65;100971.44;5111446;28;20427;-85
2023/05/28 03:24:35;;;;;;;72.17;68.57;;;;;;;39.46;37.37;100984.53;5098183;28;20420;-85
2023/05/28 03:27:01;;;;;;;81.50;66.93;;;;;;;39.44;37.66;100995.69;5100660;27;20450;-85
2023/05/28 03:29:27;;;;;;;62.87;59.87;;;;;;;39.45;37.75;100996.50;5118400;27;20415;-85
2023/05/28 03:31:53;;;;;;;64.20;51.90;;;;;;;39.44;37.66;100994.91;5113696;28;20462;-85
2023/05/28 03:34:20;;;;;;;52.53;44.63;;;;;;;39.41;37.58;100998.22;5097919;28;20416;-85
2023/05/28 03:36:46;;;;;;;52.97;50.37;;;;;;;39.45;37.72;101010.88;5097719;28;20499;-85
2023/05/28 03:39:12;;;;;;;62.80;59.80;;;;;;;39.42;37.87;101008.00;5097648;28;20451;-85
2023/05/28 03:41:38;;;;;;;44.20;40.47;;;;;;;39.37;37.94;101003.50;5098357;28;20755;-86
2023/05/28 03:44:05;;;;;;;49.60;42.70;;;;;;;39.40;37.68;101004.78;5100616;27;20777;-85
2023/05/28 03:46:31;;;;;;;54.27;46.27;;;;;;;39.37;37.87;100998.06;5117981;27;20433;-85
2023/05/28 03:48:57;;;;;;;48.70;40.47;;;;;;;39.37;37.98;100994.56;5136720;27;20449;-85
2023/05/28 03:51:24;;;;;;;38.80;35.30;;;;;;;39.34;38.01;100995.97;5117842;27;20423;-85
2023/05/28 03:53:50;;;;;;;35.90;32.57;;;;;;;39.35;38.00;100992.16;5110464;28;20436;-85
2023/05/28 03:56:18;;;;;;;36.07;29.23;;;;;;;39.40;38.13;100997.44;5097395;28;20462;-86
2023/05/28 03:58:44;;;;;;;30.40;24.27;;;;;;;39.40;38.22;100994.72;5097173;28;20815;-85
2023/05/28 04:01:10;;;;;;;38.73;27.33;;;;;;;39.41;37.95;100990.09;5097207;28;20980;-85
2023/05/28 04:03:36;;;;;;;29.07;26.17;;;;;;;39.46;37.67;100987.22;5100175;27;20409;-86
2023/05/28 04:06:02;;;;;;;30.90;26.67;;;;;;;39.45;37.62;100999.22;5135890;27;20404;-85
2023/05/28 04:08:28;;;;;;;30.50;25.27;;;;;;;39.43;37.50;100991.38;5117461;27;20427;-85
2023/05/28 04:10:54;;;;;;;32.73;26.43;;;;;;;39.46;37.48;100992.66;5136108;27;20770;-86
2023/05/28 04:13:20;;;;;;;26.67;23.40;;;;;;;39.47;37.31;100991.53;5114627;27;20514;-85
2023/05/28 04:15:46;;;;;;;28.40;22.50;;;;;;;39.49;37.01;100990.13;5096818;28;20587;-85
2023/05/28 04:18:12;;;;;;;26.30;22.27;;;;;;;39.43;36.95;100987.88;5107022;27;20528;-85
2023/05/28 04:20:38;;;;;;;30.27;22.40;;;;;;;39.45;37.32;100989.16;5117646;27;20488;-85
2023/05/28 04:23:04;;;;;;;32.80;21.60;;;;;;;39.44;37.20;100984.03;5117230;27;20498;-86
2023/05/28 04:25:31;;;;;;;31.40;21.23;;;;;;;39.41;37.08;100982.78;5117286;27;20415;-85
2023/05/28 04:27:58;;;;;;;33.47;19.03;;;;;;;39.42;36.99;100980.84;5117100;27;20410;-85
2023/05/28 04:30:24;;;;;;;33.03;20.37;;;;;;;39.44;37.10;100971.28;5135885;27;20422;-85
2023/05/28 04:32:53;;;;;;;31.23;20.20;;;;;;;39.41;37.07;100971.91;5117258;27;20439;-85
2023/05/28 04:35:21;;;;;;;29.33;19.70;;;;;;;39.41;36.90;100968.38;5116801;27;20792;-85
2023/05/28 04:37:50;;;;;;;23.60;18.40;;;;;;;39.44;37.27;100970.47;5117113;27;20419;-85
2023/05/28 04:40:17;;;;;;;32.80;19.17;;;;;;;39.41;37.24;100968.38;5116874;27;20423;-85
2023/05/28 04:42:43;;;;;;;28.17;21.30;;;;;;;39.41;37.38;100962.94;5116933;27;20957;-85
2023/05/28 04:45:10;;;;;;;28.37;20.20;;;;;;;39.42;37.44;100967.28;5116537;27;20430;-85
2023/05/28 04:47:39;;;;;;;36.10;22.73;;;;;;;39.40;37.68;100967.56;5116864;27;20439;-86
2023/05/28 04:50:06;;;;;;;33.80;25.93;;;;;;;39.43;37.68;100975.09;5116801;27;20515;-85
2023/05/28 04:52:35;;;;;;;42.13;27.00;;;;;;;39.41;37.50;100966.47;5116553;27;20419;-85
2023/05/28 04:55:04;;;;;;;48.10;29.83;;;;;;;39.40;37.74;100975.72;5135265;27;20506;-85
2023/05/28 04:57:30;;;;;;;40.80;27.20;;;;;;;39.45;37.52;100978.28;5116465;27;20542;-85
2023/05/28 04:59:56;;;;;;;32.23;27.83;;;;;;;39.40;37.76;100978.44;5116628;27;20501;-84
2023/05/28 05:02:23;;;;;;;34.93;30.00;;;;;;;39.41;37.95;100977.34;5116591;27;20442;-87
2023/05/28 05:04:49;;;;;;;40.63;28.73;;;;;;;39.40;37.74;100983.06;5116550;27;20418;-85
2023/05/28 05:07:16;;;;;;;31.33;25.73;;;;;;;39.40;37.82;100988.50;5116257;27;20423;-85
2023/05/28 05:09:42;;;;;;;34.33;23.40;;;;;;;39.43;38.13;100985.16;5115555;27;20438;-85
2023/05/28 05:12:09;;;;;;;26.90;21.13;;;;;;;39.45;37.92;100985.63;5116372;27;20477;-85
2023/05/28 05:14:36;;;;;;;37.13;24.00;;;;;;;39.45;37.94;100986.44;5116198;27;20419;-86
2023/05/28 05:17:08;;;;;;;24.17;20.50;;;;;;;39.39;37.97;100993.13;5114923;27;20496;-85
2023/05/28 05:19:35;;;;;;;36.33;23.30;;;;;;;39.41;38.17;100992.81;5116153;27;20514;-84
2023/05/28 05:22:01;;;;;;;30.20;23.10;;;;;;;39.40;37.91;100989.28;5116190;27;20419;-85
2023/05/28 05:24:27;;;;;;;31.20;20.87;;;;;;;39.41;38.38;100993.63;5115943;27;20422;-85
2023/05/28 05:26:53;;;;;;;30.73;21.33;;;;;;;39.46;38.08;100992.66;5115917;27;20766;-85
2023/05/28 05:29:19;;;;;;;27.83;20.57;;;;;;;39.42;38.13;100987.09;5115953;27;20181;-85
2023/05/28 05:31:44;;;;;;;33.57;21.47;;;;;;;39.46;38.45;100989.94;5115765;27;20472;-85
2023/05/28 05:34:10;;;;;;;31.37;22.13;;;;;;;39.47;38.64;100986.13;5115792;27;20423;-85
2023/05/28 05:36:36;;;;;;;26.57;19.97;;;;;;;39.49;38.18;100984.72;5114332;27;20447;-85
2023/05/28 05:39:03;;;;;;;34.10;17.53;;;;;;;39.51;38.35;100984.38;5115747;27;20403;-85
2023/05/28 05:41:29;;;;;;;24.77;17.80;;;;;;;39.47;38.29;100983.41;5115787;27;20411;-85
2023/05/28 05:43:55;;;;;;;26.70;16.77;;;;;;;39.52;38.16;100985.19;5115557;27;20953;-86
2023/05/28 05:46:20;;;;;;;33.43;17.90;;;;;;;39.49;38.18;100975.75;5115192;27;20937;-85
2023/05/28 05:48:46;;;;;;;29.20;17.40;;;;;;;39.46;38.52;100982.59;5115617;27;20416;-85
2023/05/28 05:51:18;;;;;;;25.87;20.53;;;;;;;39.46;38.70;100984.53;5115577;27;20291;-85
2023/05/28 05:53:45;;;;;;;26.53;20.20;;;;;;;39.49;38.46;100987.41;5134364;27;20421;-85
2023/05/28 05:56:11;;;;;;;29.47;21.23;;;;;;;39.47;38.77;100980.69;5115428;27;20462;-85
2023/05/28 05:58:37;;;;;;;38.67;20.60;;;;;;;39.42;38.61;100989.00;5133797;27;20449;-85
2023/05/28 06:01:04;;;;;;;29.90;19.57;;;;;;;39.45;38.28;100989.16;5115379;27;20814;-85
2023/05/28 06:03:30;;;;;;;29.30;21.30;;;;;;;39.48;38.54;100991.25;5115205;27;20861;-86
2023/05/28 06:05:56;;;;;;;35.90;25.30;;;;;;;39.47;38.51;100995.09;5115464;27;20419;-85
2023/05/28 06:08:22;;;;;;;34.10;27.40;;;;;;;39.45;38.53;100999.22;5114379;27;20429;-85
2023/05/28 06:10:49;;;;;;;31.80;26.07;;;;;;;39.48;38.65;101002.13;5115149;27;20829;-85
2023/05/28 06:13:15;;;;;;;40.23;24.87;;;;;;;39.45;38.53;101008.16;5115297;27;20451;-85
2023/05/28 06:15:41;;;;;;;31.23;22.67;;;;;;;39.46;38.65;101015.19;5115785;28;20900;-85
2023/05/28 06:18:07;;;;;;;29.63;24.60;;;;;;;39.51;38.72;101025.09;5110527;28;20837;-85
2023/05/28 06:20:33;;;;;;;31.50;25.43;;;;;;;39.52;38.78;101034.03;5094716;28;20477;-86
2023/05/28 06:22:59;;;;;;;34.53;27.60;;;;;;;39.53;38.68;101035.66;5094571;28;20415;-85
2023/05/28 06:25:25;;;;;;;34.10;28.33;;;;;;;39.55;38.85;101028.00;5094747;28;20257;-85
2023/05/28 06:27:51;;;;;;;37.57;29.60;;;;;;;39.58;38.44;101024.66;5094938;28;20869;-85
2023/05/28 06:30:17;;;;;;;40.17;30.50;;;;;;;39.59;38.83;101031.66;5100962;28;20493;-85
2023/05/28 06:32:43;;;;;;;37.50;29.03;;;;;;;39.66;38.57;101035.59;5115091;28;20421;-85
2023/05/28 06:35:09;;;;;;;39.83;29.33;;;;;;;39.66;38.95;101040.22;5114930;28;20803;-85
2023/05/28 06:38:26;;;;;;;46.07;32.57;;;;;;;39.63;38.98;101035.41;5113391;28;20451;-81
2023/05/28 06:40:54;;;;;;;41.80;31.03;;;;;;;39.67;38.64;101044.53;5106920;28;20455;-78
2023/05/28 06:43:30;;;;;;;38.63;34.40;;;;;;;39.64;38.56;101048.66;5106735;28;20518;-85
2023/05/28 06:45:57;;;;;;;40.37;30.57;;;;;;;39.61;38.54;101043.06;5119052;28;20419;-83
2023/05/28 06:48:23;;;;;;;39.77;30.90;;;;;;;39.73;38.84;101057.66;5102673;28;20429;-84
2023/05/28 06:50:49;;;;;;;33.80;29.97;;;;;;;39.74;39.23;101058.44;5103624;28;20494;-81
2023/05/28 06:53:15;;;;;;;38.90;29.77;;;;;;;39.82;38.25;101071.25;5101509;28;20203;-82
2023/05/28 06:55:41;;;;;;;36.47;29.27;;;;;;;39.83;38.89;101072.84;5118606;28;20910;-82
2023/05/28 06:58:07;;;;;;;42.03;27.00;;;;;;;39.87;38.82;101081.97;5094635;28;20511;-83
2023/05/28 07:00:34;;;;;;;31.87;27.43;;;;;;;39.88;38.65;101090.94;5090108;28;20422;-82
2023/05/28 07:03:01;;;;;;;37.70;26.00;;;;;;;39.86;38.39;101087.72;5085213;28;20243;-82
2023/05/28 07:05:28;;;;;;;26.33;23.57;;;;;;;39.88;38.37;101091.72;5081774;28;20417;-82
2023/05/28 07:07:55;;;;;;;30.47;22.97;;;;;;;39.92;38.71;101086.47;5082288;28;20996;-82
2023/05/28 07:10:21;;;;;;;29.57;24.17;;;;;;;39.94;38.44;101084.22;5081242;28;20417;-82
2023/05/28 07:12:47;;;;;;;32.20;23.37;;;;;;;39.95;38.58;101093.97;5076108;28;20440;-81
2023/05/28 07:15:13;;;;;;;28.97;19.97;;;;;;;39.95;38.54;101075.75;5114769;28;20850;-81
2023/05/28 07:17:38;;;;;;;30.43;23.90;;;;;;;40.00;38.54;101099.28;5112613;28;20229;-81
2023/05/28 07:20:05;;;;;;;32.23;20.50;;;;;;;39.95;38.51;101099.41;5114639;28;20917;-81
2023/05/28 07:22:31;;;;;;;22.20;17.27;;;;;;;39.92;38.75;101113.63;5113671;28;20430;-81
2023/05/28 07:24:57;;;;;;;22.83;16.83;;;;;;;39.94;38.66;101108.69;5114365;28;20419;-82
2023/05/28 07:27:23;;;;;;;30.37;18.87;;;;;;;40.00;38.64;101108.22;5114028;28;20442;-81
2023/05/28 07:29:49;;;;;;;26.50;18.57;;;;;;;40.00;38.24;101110.94;5114486;28;20178;-81
2023/05/28 07:32:15;;;;;;;25.00;17.20;;;;;;;40.10;38.39;101114.53;5113419;28;20437;-81
2023/05/28 07:34:41;;;;;;;33.77;18.80;;;;;;;40.17;38.10;101117.59;5114734;28;20533;-81
2023/05/28 07:37:07;;;;;;;24.00;18.97;;;;;;;40.24;38.46;101121.44;5113846;28;20198;-80
2023/05/28 07:39:33;;;;;;;29.27;17.40;;;;;;;40.24;37.98;101121.44;5115180;27;20431;-80
2023/05/28 07:41:59;;;;;;;25.70;18.70;;;;;;;40.32;37.81;101119.03;5117739;27;20470;-80
2023/05/28 07:44:25;;;;;;;27.10;18.40;;;;;;;40.33;37.84;101124.19;5118168;27;20933;-80
2023/05/28 07:46:51;;;;;;;30.50;19.93;;;;;;;40.39;37.98;101119.38;5117710;27;20546;-80
2023/05/28 07:49:17;;;;;;;23.27;18.10;;;;;;;40.40;38.17;101123.72;5117961;27;20502;-80
2023/05/28 07:51:43;;;;;;;22.40;17.03;;;;;;;40.45;37.85;101132.50;5118050;27;20475;-81
2023/05/28 07:54:10;;;;;;;21.70;16.40;;;;;;;40.50;38.02;101128.88;5117893;27;20415;-85
2023/05/28 07:56:36;;;;;;;34.63;19.60;;;;;;;40.52;37.89;101134.81;5136777;27;20450;-85
2023/05/28 07:59:04;;;;;;;25.40;18.20;;;;;;;40.56;37.55;101124.88;5117265;27;20443;-85
2023/05/28 08:01:30;;;;;;;28.87;19.37;;;;;;;40.55;37.82;101140.38;5117736;27;20427;-84
2023/05/28 08:03:56;;;;;;;29.30;19.37;;;;;;;40.61;37.70;101134.81;5135696;27;20917;-85
2023/05/28 08:06:22;;;;;;;31.63;22.17;;;;;;;40.66;37.60;101137.38;5136015;27;20419;-81
2023/05/28 08:08:48;;;;;;;39.60;21.00;;;;;;;40.68;37.55;101144.06;5118046;27;20843;-84
2023/05/28 08:11:14;;;;;;;21.13;13.23;;;;;;;40.73;37.32;101152.09;5117614;27;20560;-84
2023/05/28 08:13:43;;;;;;;31.63;14.83;;;;;;;40.79;37.09;101148.09;5135280;27;20498;-80
2023/05/28 08:16:12;;;;;;;31.23;19.40;;;;;;;40.81;36.97;101150.47;5135692;27;20458;-80
2023/05/28 08:18:41;;;;;;;28.00;13.90;;;;;;;40.87;36.93;101151.13;5106221;27;20521;-80
2023/05/28 08:21:08;;;;;;;40.60;14.17;;;;;;;40.88;37.52;101148.06;5135647;27;20431;-79
2023/05/28 08:23:34;;;;;;;28.50;16.10;;;;;;;40.92;37.42;101151.00;5118388;27;20435;-81
2023/05/28 08:26:04;;;;;;;27.33;13.50;;;;;;;40.91;37.08;101143.97;5129720;27;20411;-79
2023/05/28 08:28:30;;;;;;;33.27;14.00;;;;;;;41.00;36.60;101158.34;5135553;27;20498;-78
2023/05/28 08:30:56;;;;;;;20.60;8.80;;;;;;;41.00;36.79;101156.44;5135440;27;20463;-79
2023/05/28 08:33:23;;;;;;;20.70;9.37;;;;;;;41.04;36.79;101153.88;5128826;27;20467;-78
2023/05/28 08:35:49;;;;;;;23.67;12.70;;;;;;;41.07;36.90;101151.34;5134164;27;20466;-79
2023/05/28 08:38:15;;;;;;;18.57;9.80;;;;;;;41.09;36.65;101156.44;5133973;27;20495;-82
2023/05/28 08:40:44;;;;;;;15.97;8.40;;;;;;;41.14;36.58;101152.78;5133632;27;20559;-81
2023/05/28 08:43:10;;;;;;;15.40;9.80;;;;;;;41.16;36.84;101162.19;5116155;27;20435;-81
2023/05/28 08:45:37;;;;;;;22.90;10.27;;;;;;;41.18;36.29;101159.94;5117372;27;20441;-79
2023/05/28 08:48:04;;;;;;;21.80;9.93;;;;;;;41.20;36.39;101170.53;5109250;28;20423;-79
2023/05/28 08:50:31;;;;;;;16.83;9.53;;;;;;;41.18;36.62;101167.31;5117140;27;20448;-84
2023/05/28 08:53:02;;;;;;;27.37;11.20;;;;;;;41.17;36.69;101166.50;5097352;27;20944;-84
2023/05/28 08:55:28;;;;;;;16.30;8.33;;;;;;;41.19;36.86;101167.00;5116106;27;20998;-80
2023/05/28 08:57:54;;;;;;;14.90;7.27;;;;;;;41.21;36.78;101167.47;5116577;27;20455;-79
2023/05/28 09:00:21;;;;;;;16.80;8.10;;;;;;;41.19;36.79;101161.56;5116856;27;20177;-80
2023/05/28 09:02:47;;;;;;;17.20;7.60;;;;;;;41.23;37.00;101159.78;5116241;27;20535;-79
2023/05/28 09:05:13;;;;;;;19.47;9.57;;;;;;;41.26;36.92;101155.63;5128239;27;20937;-79
2023/05/28 09:07:39;;;;;;;21.67;8.70;;;;;;;41.37;37.06;101164.28;5096101;28;20420;-81
2023/05/28 09:10:07;;;;;;;18.93;8.30;;;;;;;41.44;37.07;101168.13;5125623;27;20185;-79
2023/05/28 09:12:34;;;;;;;16.40;8.87;;;;;;;41.43;36.98;101171.94;5115986;27;20788;-80
2023/05/28 09:15:00;;;;;;;25.00;9.03;;;;;;;41.46;37.01;101165.06;5106464;27;20824;-82
2023/05/28 09:17:37;;;;;;;20.80;10.17;;;;;;;41.49;36.78;101159.75;5115607;27;21006;-82
2023/05/28 09:20:13;;;;;;;20.23;10.63;;;;;;;41.50;36.72;101155.16;5111714;27;20426;-83
2023/05/28 09:22:39;;;;;;;20.47;10.40;;;;;;;41.51;36.28;101162.19;5109255;27;20487;-83
2023/05/28 09:25:07;;;;;;;14.37;8.63;;;;;;;41.49;36.23;101153.50;5133332;27;20418;-82
2023/05/28 09:27:34;;;;;;;20.13;9.70;;;;;;;41.50;36.44;101153.22;5114510;27;20414;-84
2023/05/28 09:30:08;;;;;;;20.30;7.97;;;;;;;41.44;36.25;101148.28;5115493;27;20410;-80
2023/05/28 09:32:35;;;;;;;12.70;6.73;;;;;;;41.49;36.00;101148.06;5115440;27;20506;-80
2023/05/28 09:35:04;;;;;;;13.23;5.27;;;;;;;41.48;35.63;101141.03;5115196;27;20945;-81
2023/05/28 09:37:30;;;;;;;12.83;5.67;;;;;;;41.54;35.54;101148.69;5115260;27;20458;-83
2023/05/28 09:40:10;;;;;;;11.87;5.00;;;;;;;41.59;34.97;101151.25;5112910;27;20800;-80
2023/05/28 09:42:41;;;;;;;9.20;3.60;;;;;;;41.70;35.14;101161.81;5097987;27;20455;-81
2023/05/28 09:45:11;;;;;;;10.13;5.20;;;;;;;41.69;35.00;101161.00;5133732;27;20913;-81
2023/05/28 09:47:46;;;;;;;15.23;4.43;;;;;;;41.69;34.26;101163.72;5115442;27;20452;-80
2023/05/28 09:50:12;;;;;;;11.77;4.80;;;;;;;41.70;34.26;101154.44;5115743;27;20418;-80
2023/05/28 09:52:42;;;;;;;12.20;4.30;;;;;;;41.63;34.50;101147.91;5114084;27;20423;-81
2023/05/28 09:55:18;;;;;;;12.60;4.37;;;;;;;41.56;34.71;101148.41;5115129;27;20790;-80
2023/05/28 09:57:56;;;;;;;12.33;4.10;;;;;;;41.44;34.59;101148.28;5113370;27;20473;-80
2023/05/28 10:00:31;;;;;;;11.53;4.13;;;;;;;41.42;34.76;101145.84;5115465;27;20461;-80
2023/05/28 10:03:12;;;;;;;12.10;4.60;;;;;;;41.43;34.97;101142.00;5114458;27;20980;-83
2023/05/28 10:05:42;;;;;;;7.90;3.67;;;;;;;41.40;34.46;101144.59;5113486;27;20419;-81
2023/05/28 10:08:11;;;;;;;11.80;3.70;;;;;;;41.44;34.57;101153.72;5115052;27;20419;-81
2023/05/28 10:10:39;;;;;;;8.93;4.13;;;;;;;41.48;34.66;101152.72;5133738;27;20405;-85
2023/05/28 10:13:07;;;;;;;15.63;4.43;;;;;;;41.54;34.83;101151.41;5114962;27;20412;-82
2023/05/28 10:15:35;;;;;;;13.33;4.43;;;;;;;41.62;34.85;101155.28;5114744;28;20495;-82
2023/05/28 10:18:02;;;;;;;12.10;4.43;;;;;;;41.69;34.73;101152.84;5114888;27;20505;-82
2023/05/28 10:20:29;;;;;;;13.83;4.47;;;;;;;41.70;34.69;101146.25;5115174;27;20422;-83
2023/05/28 10:22:56;;;;;;;10.13;4.93;;;;;;;41.78;34.42;101145.44;5114635;28;20419;-82
2023/05/28 10:25:22;;;;;;;14.30;5.43;;;;;;;41.79;34.04;101149.75;5115280;28;20506;-82
2023/05/28 10:27:48;;;;;;;11.93;5.40;;;;;;;41.85;34.53;101153.91;5112436;28;20419;-81
2023/05/28 10:30:37;;;;;;;10.73;5.70;;;;;;;41.85;34.81;101145.75;5114378;28;20410;-81
2023/05/28 10:33:08;;;;;;;8.90;3.90;;;;;;;41.97;34.55;101145.03;5113540;28;20956;-87
2023/05/28 10:35:50;;;;;;;9.13;4.17;;;;;;;42.04;34.36;101141.81;5124013;28;20464;-87
2023/05/28 10:38:16;;;;;;;13.77;4.97;;;;;;;41.89;34.44;101143.16;5108473;28;20427;-85
2023/05/28 10:40:42;;;;;;;13.87;4.50;;;;;;;41.98;33.80;101140.38;5113845;28;20763;-82
2023/05/28 10:43:40;;;;;;;8.53;3.83;;;;;;;42.00;33.95;101143.59;5113731;28;20987;-82
2023/05/28 10:46:17;;;;;;;15.00;5.93;;;;;;;41.87;34.50;101137.25;5114701;28;20790;-82
2023/05/28 10:49:03;;;;;;;13.47;4.50;;;;;;;41.98;34.33;101138.47;5133576;28;20969;-81
2023/05/28 10:52:00;;;;;;;17.23;4.03;;;;;;;41.96;34.32;101138.00;5133164;28;20935;-81
2023/05/28 10:54:29;;;;;;;11.70;4.23;;;;;;;41.98;34.56;101143.91;5132995;28;20395;-82
2023/05/28 10:57:12;;;;;;;10.60;3.47;;;;;;;41.86;34.58;101124.75;5113273;28;20451;-82
2023/05/28 10:59:48;;;;;;;13.80;5.30;;;;;;;41.91;34.40;101118.31;5101847;28;20868;-81
2023/05/28 11:02:25;;;;;;;11.00;3.83;;;;;;;41.93;34.44;101116.03;5113208;28;20442;-85
2023/05/28 11:05:00;;;;;;;11.60;4.50;;;;;;;41.94;34.59;101125.84;5132779;28;20445;-82
2023/05/28 11:07:32;;;;;;;9.87;4.60;;;;;;;41.95;34.47;101114.59;5113517;28;20784;-82
2023/05/28 11:09:59;;;;;;;10.83;4.23;;;;;;;41.98;34.83;101122.13;5114664;28;20407;-82
2023/05/28 11:12:29;;;;;;;8.83;3.90;;;;;;;41.95;34.30;101117.34;5115039;28;20502;-82
2023/05/28 11:14:56;;;;;;;8.40;4.00;;;;;;;42.07;34.43;101122.88;5114324;27;20415;-84